sensor_id;sensor_type;location;lat;lon;timestamp;P1;durP1;ratioP1;P2;durP2;ratioP2
45252;SDS011;63171;50.520;30.486;2023-02-26T00:00:14;11.65;;;7.57;;
45252;SDS011;63171;50.520;30.486;2023-02-26T00:01:10;11.57;;;7.72;;
45252;SDS011;63171;50.520;30.486;2023-02-26T00:02:02;8.88;;;7.97;;
45252;SDS011;63171;50.520;30.486;2023-02-26T00:02:52;8.80;;;7.00;;
45252;SDS011;63171;50.520;30.486;2023-02-26T00:03:43;8.32;;;7.43;;
45252;SDS011;63171;50.520;30.486;2023-02-26T00:04:32;8.60;;;7.22;;
45252;SDS011;63171;50.520;30.486;2023-02-26T00:05:23;9.02;;;7.85;;
45252;SDS011;63171;50.520;30.486;2023-02-26T00:06:13;10.27;;;8.07;;
45252;SDS011;63171;50.520;30.486;2023-02-26T00:07:04;8.27;;;6.78;;
45252;SDS011;63171;50.520;30.486;2023-02-26T00:07:54;8.02;;;7.25;;
45252;SDS011;63171;50.520;30.486;2023-02-26T00:08:45;7.82;;;6.65;;
45252;SDS011;63171;50.520;30.486;2023-02-26T00:09:35;10.00;;;8.70;;
45252;SDS011;63171;50.520;30.486;2023-02-26T00:11:16;8.90;;;5.95;;
45252;SDS011;63171;50.520;30.486;2023-02-26T00:12:08;8.60;;;6.35;;
45252;SDS011;63171;50.520;30.486;2023-02-26T00:12:59;7.28;;;6.57;;
45252;SDS011;63171;50.520;30.486;2023-02-26T00:13:51;8.45;;;6.38;;
45252;SDS011;63171;50.520;30.486;2023-02-26T00:14:41;8.00;;;7.03;;
45252;SDS011;63171;50.520;30.486;2023-02-26T00:15:32;8.25;;;7.35;;
45252;SDS011;63171;50.520;30.486;2023-02-26T00:16:25;7.68;;;6.65;;
45252;SDS011;63171;50.520;30.486;2023-02-26T00:17:29;11.73;;;7.22;;
45252;SDS011;63171;50.520;30.486;2023-02-26T00:18:24;7.97;;;7.13;;
45252;SDS011;63171;50.520;30.486;2023-02-26T00:19:15;7.35;;;6.47;;
45252;SDS011;63171;50.520;30.486;2023-02-26T00:20:05;7.22;;;6.45;;
45252;SDS011;63171;50.520;30.486;2023-02-26T00:21:00;8.45;;;6.68;;
45252;SDS011;63171;50.520;30.486;2023-02-26T00:21:50;7.68;;;6.63;;
45252;SDS011;63171;50.520;30.486;2023-02-26T00:22:41;8.32;;;6.63;;
45252;SDS011;63171;50.520;30.486;2023-02-26T00:23:32;8.48;;;7.50;;
45252;SDS011;63171;50.520;30.486;2023-02-26T00:24:23;8.35;;;7.55;;
45252;SDS011;63171;50.520;30.486;2023-02-26T00:25:12;9.45;;;7.10;;
45252;SDS011;63171;50.520;30.486;2023-02-26T00:26:04;8.82;;;6.07;;
45252;SDS011;63171;50.520;30.486;2023-02-26T00:26:54;8.48;;;6.82;;
45252;SDS011;63171;50.520;30.486;2023-02-26T00:27:44;6.82;;;6.05;;
45252;SDS011;63171;50.520;30.486;2023-02-26T00:28:35;7.15;;;6.45;;
45252;SDS011;63171;50.520;30.486;2023-02-26T00:30:17;7.88;;;6.38;;
45252;SDS011;63171;50.520;30.486;2023-02-26T00:31:08;7.53;;;6.75;;
45252;SDS011;63171;50.520;30.486;2023-02-26T00:31:59;9.25;;;6.25;;
45252;SDS011;63171;50.520;30.486;2023-02-26T00:33:41;6.60;;;5.82;;
45252;SDS011;63171;50.520;30.486;2023-02-26T00:34:32;7.82;;;6.35;;
45252;SDS011;63171;50.520;30.486;2023-02-26T00:35:24;7.18;;;5.95;;
45252;SDS011;63171;50.520;30.486;2023-02-26T00:36:18;7.93;;;6.70;;
45252;SDS011;63171;50.520;30.486;2023-02-26T00:37:14;7.13;;;6.43;;
45252;SDS011;63171;50.520;30.486;2023-02-26T00:38:11;6.05;;;5.47;;
45252;SDS011;63171;50.520;30.486;2023-02-26T00:39:18;7.82;;;6.25;;
45252;SDS011;63171;50.520;30.486;2023-02-26T00:40:26;8.43;;;6.85;;
45252;SDS011;63171;50.520;30.486;2023-02-26T00:41:25;7.78;;;6.07;;
45252;SDS011;63171;50.520;30.486;2023-02-26T00:42:17;9.02;;;5.95;;
45252;SDS011;63171;50.520;30.486;2023-02-26T00:43:09;7.10;;;6.18;;
45252;SDS011;63171;50.520;30.486;2023-02-26T00:44:04;8.38;;;6.32;;
45252;SDS011;63171;50.520;30.486;2023-02-26T00:44:55;8.48;;;6.47;;
45252;SDS011;63171;50.520;30.486;2023-02-26T00:45:47;6.28;;;5.63;;
45252;SDS011;63171;50.520;30.486;2023-02-26T00:46:46;6.07;;;5.03;;
45252;SDS011;63171;50.520;30.486;2023-02-26T00:47:44;6.68;;;5.95;;
45252;SDS011;63171;50.520;30.486;2023-02-26T00:48:43;6.65;;;5.97;;
45252;SDS011;63171;50.520;30.486;2023-02-26T00:49:45;7.55;;;6.38;;
45252;SDS011;63171;50.520;30.486;2023-02-26T00:50:41;8.30;;;6.72;;
45252;SDS011;63171;50.520;30.486;2023-02-26T00:51:40;6.60;;;6.00;;
45252;SDS011;63171;50.520;30.486;2023-02-26T00:52:38;7.55;;;6.85;;
45252;SDS011;63171;50.520;30.486;2023-02-26T00:53:35;6.43;;;5.82;;
45252;SDS011;63171;50.520;30.486;2023-02-26T00:54:33;7.15;;;6.30;;
45252;SDS011;63171;50.520;30.486;2023-02-26T00:55:23;6.32;;;5.72;;
45252;SDS011;63171;50.520;30.486;2023-02-26T00:56:14;6.45;;;5.78;;
45252;SDS011;63171;50.520;30.486;2023-02-26T00:57:05;6.65;;;5.97;;
45252;SDS011;63171;50.520;30.486;2023-02-26T00:57:56;6.35;;;5.30;;
45252;SDS011;63171;50.520;30.486;2023-02-26T00:58:46;9.07;;;6.10;;
45252;SDS011;63171;50.520;30.486;2023-02-26T00:59:36;6.07;;;5.30;;
45252;SDS011;63171;50.520;30.486;2023-02-26T01:02:37;9.57;;;5.90;;
45252;SDS011;63171;50.520;30.486;2023-02-26T01:03:30;7.13;;;6.15;;
45252;SDS011;63171;50.520;30.486;2023-02-26T01:04:22;8.82;;;5.63;;
45252;SDS011;63171;50.520;30.486;2023-02-26T01:05:14;5.95;;;5.30;;
45252;SDS011;63171;50.520;30.486;2023-02-26T01:06:08;6.60;;;6.00;;
45252;SDS011;63171;50.520;30.486;2023-02-26T01:07:01;6.75;;;6.05;;
45252;SDS011;63171;50.520;30.486;2023-02-26T01:07:53;8.45;;;5.88;;
45252;SDS011;63171;50.520;30.486;2023-02-26T01:08:52;9.15;;;7.05;;
45252;SDS011;63171;50.520;30.486;2023-02-26T01:09:50;7.28;;;6.10;;
45252;SDS011;63171;50.520;30.486;2023-02-26T01:10:40;7.07;;;6.22;;
45252;SDS011;63171;50.520;30.486;2023-02-26T01:11:32;9.48;;;7.13;;
45252;SDS011;63171;50.520;30.486;2023-02-26T01:12:24;7.82;;;6.22;;
45252;SDS011;63171;50.520;30.486;2023-02-26T01:13:16;7.07;;;6.40;;
45252;SDS011;63171;50.520;30.486;2023-02-26T01:14:06;10.13;;;7.75;;
45252;SDS011;63171;50.520;30.486;2023-02-26T01:14:58;10.00;;;6.82;;
45252;SDS011;63171;50.520;30.486;2023-02-26T01:15:49;7.47;;;5.80;;
45252;SDS011;63171;50.520;30.486;2023-02-26T01:16:47;7.60;;;6.78;;
45252;SDS011;63171;50.520;30.486;2023-02-26T01:17:43;9.85;;;6.40;;
45252;SDS011;63171;50.520;30.486;2023-02-26T01:18:37;8.10;;;5.90;;
45252;SDS011;63171;50.520;30.486;2023-02-26T01:19:32;8.55;;;6.28;;
45252;SDS011;63171;50.520;30.486;2023-02-26T01:20:33;11.20;;;7.00;;
45252;SDS011;63171;50.520;30.486;2023-02-26T01:21:28;7.22;;;5.78;;
45252;SDS011;63171;50.520;30.486;2023-02-26T01:22:24;8.20;;;6.15;;
45252;SDS011;63171;50.520;30.486;2023-02-26T01:23:18;6.80;;;6.10;;
45252;SDS011;63171;50.520;30.486;2023-02-26T01:24:14;6.15;;;5.55;;
45252;SDS011;63171;50.520;30.486;2023-02-26T01:25:07;6.93;;;6.22;;
45252;SDS011;63171;50.520;30.486;2023-02-26T01:25:59;7.57;;;6.22;;
45252;SDS011;63171;50.520;30.486;2023-02-26T01:26:54;8.32;;;6.93;;
45252;SDS011;63171;50.520;30.486;2023-02-26T01:27:47;6.78;;;5.95;;
45252;SDS011;63171;50.520;30.486;2023-02-26T01:28:37;10.88;;;5.55;;
45252;SDS011;63171;50.520;30.486;2023-02-26T01:29:29;7.25;;;6.20;;
45252;SDS011;63171;50.520;30.486;2023-02-26T01:30:19;6.93;;;5.55;;
45252;SDS011;63171;50.520;30.486;2023-02-26T01:31:13;5.95;;;5.35;;
45252;SDS011;63171;50.520;30.486;2023-02-26T01:32:15;6.30;;;5.30;;
45252;SDS011;63171;50.520;30.486;2023-02-26T01:33:13;6.20;;;5.20;;
45252;SDS011;63171;50.520;30.486;2023-02-26T01:34:10;10.48;;;5.28;;
45252;SDS011;63171;50.520;30.486;2023-02-26T01:35:07;7.30;;;5.13;;
45252;SDS011;63171;50.520;30.486;2023-02-26T01:36:02;7.07;;;5.90;;
45252;SDS011;63171;50.520;30.486;2023-02-26T01:37:01;7.13;;;5.65;;
45252;SDS011;63171;50.520;30.486;2023-02-26T01:38:00;12.80;;;5.30;;
45252;SDS011;63171;50.520;30.486;2023-02-26T01:39:03;6.63;;;5.38;;
45252;SDS011;63171;50.520;30.486;2023-02-26T01:40:06;6.72;;;5.38;;
45252;SDS011;63171;50.520;30.486;2023-02-26T01:41:26;6.55;;;5.20;;
45252;SDS011;63171;50.520;30.486;2023-02-26T01:42:20;5.85;;;5.10;;
45252;SDS011;63171;50.520;30.486;2023-02-26T01:43:16;7.97;;;5.20;;
45252;SDS011;63171;50.520;30.486;2023-02-26T01:44:12;6.40;;;5.80;;
45252;SDS011;63171;50.520;30.486;2023-02-26T01:45:10;5.82;;;5.30;;
45252;SDS011;63171;50.520;30.486;2023-02-26T01:46:02;6.07;;;5.43;;
45252;SDS011;63171;50.520;30.486;2023-02-26T01:47:03;5.82;;;4.97;;
45252;SDS011;63171;50.520;30.486;2023-02-26T01:48:03;6.47;;;5.18;;
45252;SDS011;63171;50.520;30.486;2023-02-26T01:48:57;6.53;;;5.30;;
45252;SDS011;63171;50.520;30.486;2023-02-26T01:49:48;6.93;;;6.28;;
45252;SDS011;63171;50.520;30.486;2023-02-26T01:50:38;6.97;;;6.00;;
45252;SDS011;63171;50.520;30.486;2023-02-26T01:51:48;7.03;;;5.85;;
45252;SDS011;63171;50.520;30.486;2023-02-26T01:53:54;5.60;;;5.10;;
45252;SDS011;63171;50.520;30.486;2023-02-26T01:54:43;7.05;;;5.90;;
45252;SDS011;63171;50.520;30.486;2023-02-26T01:55:34;6.80;;;5.47;;
45252;SDS011;63171;50.520;30.486;2023-02-26T01:56:25;5.55;;;5.05;;
45252;SDS011;63171;50.520;30.486;2023-02-26T01:57:15;7.43;;;5.30;;
45252;SDS011;63171;50.520;30.486;2023-02-26T01:58:07;5.47;;;4.45;;
45252;SDS011;63171;50.520;30.486;2023-02-26T01:58:59;7.63;;;6.00;;
45252;SDS011;63171;50.520;30.486;2023-02-26T01:59:54;7.05;;;5.35;;
45252;SDS011;63171;50.520;30.486;2023-02-26T02:00:46;7.90;;;6.40;;
45252;SDS011;63171;50.520;30.486;2023-02-26T02:01:37;5.93;;;5.30;;
45252;SDS011;63171;50.520;30.486;2023-02-26T02:02:28;6.55;;;5.20;;
45252;SDS011;63171;50.520;30.486;2023-02-26T02:03:19;7.70;;;5.47;;
45252;SDS011;63171;50.520;30.486;2023-02-26T02:04:11;5.88;;;5.30;;
45252;SDS011;63171;50.520;30.486;2023-02-26T02:05:06;8.68;;;5.25;;
45252;SDS011;63171;50.520;30.486;2023-02-26T02:06:01;5.15;;;4.65;;
45252;SDS011;63171;50.520;30.486;2023-02-26T02:06:55;5.45;;;4.65;;
45252;SDS011;63171;50.520;30.486;2023-02-26T02:07:44;6.45;;;5.43;;
45252;SDS011;63171;50.520;30.486;2023-02-26T02:08:35;5.68;;;5.10;;
45252;SDS011;63171;50.520;30.486;2023-02-26T02:09:25;6.13;;;5.53;;
45252;SDS011;63171;50.520;30.486;2023-02-26T02:10:16;7.65;;;5.85;;
45252;SDS011;63171;50.520;30.486;2023-02-26T02:11:07;5.43;;;4.93;;
45252;SDS011;63171;50.520;30.486;2023-02-26T02:12:06;5.75;;;5.25;;
45252;SDS011;63171;50.520;30.486;2023-02-26T02:13:02;6.55;;;4.82;;
45252;SDS011;63171;50.520;30.486;2023-02-26T02:14:03;5.35;;;4.85;;
45252;SDS011;63171;50.520;30.486;2023-02-26T02:15:03;6.15;;;4.75;;
45252;SDS011;63171;50.520;30.486;2023-02-26T02:16:01;5.90;;;4.45;;
45252;SDS011;63171;50.520;30.486;2023-02-26T02:17:04;5.18;;;4.43;;
45252;SDS011;63171;50.520;30.486;2023-02-26T02:18:04;5.30;;;4.63;;
45252;SDS011;63171;50.520;30.486;2023-02-26T02:19:07;7.38;;;5.45;;
45252;SDS011;63171;50.520;30.486;2023-02-26T02:20:21;6.85;;;5.07;;
45252;SDS011;63171;50.520;30.486;2023-02-26T02:21:24;5.78;;;5.20;;
45252;SDS011;63171;50.520;30.486;2023-02-26T02:22:29;7.03;;;5.18;;
45252;SDS011;63171;50.520;30.486;2023-02-26T02:23:35;5.53;;;4.78;;
45252;SDS011;63171;50.520;30.486;2023-02-26T02:24:34;5.88;;;5.10;;
45252;SDS011;63171;50.520;30.486;2023-02-26T02:25:37;6.38;;;5.00;;
45252;SDS011;63171;50.520;30.486;2023-02-26T02:27:49;5.38;;;4.85;;
45252;SDS011;63171;50.520;30.486;2023-02-26T02:28:54;5.57;;;4.78;;
45252;SDS011;63171;50.520;30.486;2023-02-26T02:30:03;6.05;;;5.43;;
45252;SDS011;63171;50.520;30.486;2023-02-26T02:31:08;5.40;;;4.90;;
45252;SDS011;63171;50.520;30.486;2023-02-26T02:32:02;6.65;;;5.20;;
45252;SDS011;63171;50.520;30.486;2023-02-26T02:32:58;7.15;;;5.13;;
45252;SDS011;63171;50.520;30.486;2023-02-26T02:33:50;7.63;;;5.85;;
45252;SDS011;63171;50.520;30.486;2023-02-26T02:34:45;5.65;;;4.90;;
45252;SDS011;63171;50.520;30.486;2023-02-26T02:35:39;6.18;;;5.38;;
45252;SDS011;63171;50.520;30.486;2023-02-26T02:36:34;6.05;;;5.15;;
45252;SDS011;63171;50.520;30.486;2023-02-26T02:37:28;6.22;;;5.63;;
45252;SDS011;63171;50.520;30.486;2023-02-26T02:38:24;6.60;;;5.72;;
45252;SDS011;63171;50.520;30.486;2023-02-26T02:39:17;6.40;;;5.40;;
45252;SDS011;63171;50.520;30.486;2023-02-26T02:40:13;6.20;;;4.90;;
45252;SDS011;63171;50.520;30.486;2023-02-26T02:41:08;7.25;;;5.53;;
45252;SDS011;63171;50.520;30.486;2023-02-26T02:42:03;6.80;;;5.72;;
45252;SDS011;63171;50.520;30.486;2023-02-26T02:42:58;6.40;;;5.70;;
45252;SDS011;63171;50.520;30.486;2023-02-26T02:43:52;5.78;;;5.15;;
45252;SDS011;63171;50.520;30.486;2023-02-26T02:44:45;5.30;;;4.80;;
45252;SDS011;63171;50.520;30.486;2023-02-26T02:45:41;5.82;;;4.88;;
45252;SDS011;63171;50.520;30.486;2023-02-26T02:46:54;5.47;;;4.97;;
45252;SDS011;63171;50.520;30.486;2023-02-26T02:47:48;5.88;;;5.20;;
45252;SDS011;63171;50.520;30.486;2023-02-26T02:48:45;8.70;;;4.72;;
45252;SDS011;63171;50.520;30.486;2023-02-26T02:49:41;5.55;;;5.00;;
45252;SDS011;63171;50.520;30.486;2023-02-26T02:50:37;6.30;;;5.22;;
45252;SDS011;63171;50.520;30.486;2023-02-26T02:51:32;7.93;;;5.15;;
45252;SDS011;63171;50.520;30.486;2023-02-26T02:52:27;6.25;;;5.70;;
45252;SDS011;63171;50.520;30.486;2023-02-26T02:53:22;6.03;;;4.97;;
45252;SDS011;63171;50.520;30.486;2023-02-26T02:54:15;6.18;;;5.35;;
45252;SDS011;63171;50.520;30.486;2023-02-26T02:55:12;5.40;;;4.75;;
45252;SDS011;63171;50.520;30.486;2023-02-26T02:56:07;5.65;;;5.10;;
45252;SDS011;63171;50.520;30.486;2023-02-26T02:57:03;6.53;;;5.65;;
45252;SDS011;63171;50.520;30.486;2023-02-26T02:57:59;4.88;;;4.38;;
45252;SDS011;63171;50.520;30.486;2023-02-26T02:58:56;7.78;;;5.65;;
45252;SDS011;63171;50.520;30.486;2023-02-26T02:59:51;5.45;;;4.95;;
45252;SDS011;63171;50.520;30.486;2023-02-26T03:00:47;6.22;;;5.60;;
45252;SDS011;63171;50.520;30.486;2023-02-26T03:01:40;6.30;;;5.70;;
45252;SDS011;63171;50.520;30.486;2023-02-26T03:02:37;6.63;;;5.05;;
45252;SDS011;63171;50.520;30.486;2023-02-26T03:03:33;6.63;;;5.05;;
45252;SDS011;63171;50.520;30.486;2023-02-26T03:04:29;5.82;;;5.25;;
45252;SDS011;63171;50.520;30.486;2023-02-26T03:05:19;7.75;;;5.80;;
45252;SDS011;63171;50.520;30.486;2023-02-26T03:06:09;6.05;;;5.45;;
45252;SDS011;63171;50.520;30.486;2023-02-26T03:07:00;5.82;;;5.05;;
45252;SDS011;63171;50.520;30.486;2023-02-26T03:07:50;5.85;;;4.75;;
45252;SDS011;63171;50.520;30.486;2023-02-26T03:08:44;5.40;;;4.40;;
45252;SDS011;63171;50.520;30.486;2023-02-26T03:09:38;4.72;;;4.28;;
45252;SDS011;63171;50.520;30.486;2023-02-26T03:10:29;6.03;;;5.43;;
45252;SDS011;63171;50.520;30.486;2023-02-26T03:11:20;4.95;;;4.45;;
45252;SDS011;63171;50.520;30.486;2023-02-26T03:12:11;5.93;;;5.22;;
45252;SDS011;63171;50.520;30.486;2023-02-26T03:13:02;6.00;;;5.43;;
45252;SDS011;63171;50.520;30.486;2023-02-26T03:13:52;6.03;;;5.32;;
45252;SDS011;63171;50.520;30.486;2023-02-26T03:14:48;7.38;;;4.95;;
45252;SDS011;63171;50.520;30.486;2023-02-26T03:15:51;4.38;;;3.97;;
45252;SDS011;63171;50.520;30.486;2023-02-26T03:17:01;6.32;;;5.25;;
45252;SDS011;63171;50.520;30.486;2023-02-26T03:18:03;5.60;;;4.68;;
45252;SDS011;63171;50.520;30.486;2023-02-26T03:19:07;4.38;;;3.97;;
45252;SDS011;63171;50.520;30.486;2023-02-26T03:20:08;4.90;;;4.45;;
45252;SDS011;63171;50.520;30.486;2023-02-26T03:21:10;7.35;;;5.90;;
45252;SDS011;63171;50.520;30.486;2023-02-26T03:22:08;5.88;;;5.20;;
45252;SDS011;63171;50.520;30.486;2023-02-26T03:23:16;6.25;;;5.03;;
45252;SDS011;63171;50.520;30.486;2023-02-26T03:24:12;5.32;;;4.68;;
45252;SDS011;63171;50.520;30.486;2023-02-26T03:25:08;4.88;;;4.00;;
45252;SDS011;63171;50.520;30.486;2023-02-26T03:26:02;7.20;;;5.15;;
45252;SDS011;63171;50.520;30.486;2023-02-26T03:27:00;5.75;;;5.15;;
45252;SDS011;63171;50.520;30.486;2023-02-26T03:27:59;5.60;;;4.95;;
45252;SDS011;63171;50.520;30.486;2023-02-26T03:28:58;5.47;;;4.32;;
45252;SDS011;63171;50.520;30.486;2023-02-26T03:29:54;5.55;;;4.93;;
45252;SDS011;63171;50.520;30.486;2023-02-26T03:30:51;5.47;;;4.85;;
45252;SDS011;63171;50.520;30.486;2023-02-26T03:31:46;5.55;;;5.05;;
45252;SDS011;63171;50.520;30.486;2023-02-26T03:32:47;5.68;;;5.18;;
45252;SDS011;63171;50.520;30.486;2023-02-26T03:33:48;4.60;;;4.20;;
45252;SDS011;63171;50.520;30.486;2023-02-26T03:34:45;5.00;;;4.47;;
45252;SDS011;63171;50.520;30.486;2023-02-26T03:35:41;6.07;;;5.40;;
45252;SDS011;63171;50.520;30.486;2023-02-26T03:36:39;5.28;;;4.57;;
45252;SDS011;63171;50.520;30.486;2023-02-26T03:37:44;5.28;;;4.57;;
45252;SDS011;63171;50.520;30.486;2023-02-26T03:38:39;6.95;;;5.07;;
45252;SDS011;63171;50.520;30.486;2023-02-26T03:39:36;5.50;;;4.97;;
45252;SDS011;63171;50.520;30.486;2023-02-26T03:40:32;5.78;;;4.45;;
45252;SDS011;63171;50.520;30.486;2023-02-26T03:41:28;7.05;;;5.20;;
45252;SDS011;63171;50.520;30.486;2023-02-26T03:42:24;5.93;;;5.32;;
45252;SDS011;63171;50.520;30.486;2023-02-26T03:43:23;5.72;;;5.13;;
45252;SDS011;63171;50.520;30.486;2023-02-26T03:44:21;5.95;;;4.68;;
45252;SDS011;63171;50.520;30.486;2023-02-26T03:45:15;5.47;;;4.88;;
45252;SDS011;63171;50.520;30.486;2023-02-26T03:46:11;7.80;;;5.00;;
45252;SDS011;63171;50.520;30.486;2023-02-26T03:47:07;6.35;;;5.50;;
45252;SDS011;63171;50.520;30.486;2023-02-26T03:48:03;6.05;;;4.97;;
45252;SDS011;63171;50.520;30.486;2023-02-26T03:48:57;5.60;;;4.82;;
45252;SDS011;63171;50.520;30.486;2023-02-26T03:49:55;5.57;;;4.68;;
45252;SDS011;63171;50.520;30.486;2023-02-26T03:50:48;5.35;;;4.53;;
45252;SDS011;63171;50.520;30.486;2023-02-26T03:52:06;5.25;;;4.75;;
45252;SDS011;63171;50.520;30.486;2023-02-26T03:53:09;6.05;;;5.00;;
45252;SDS011;63171;50.520;30.486;2023-02-26T03:54:09;5.93;;;5.03;;
45252;SDS011;63171;50.520;30.486;2023-02-26T03:55:07;8.07;;;5.00;;
45252;SDS011;63171;50.520;30.486;2023-02-26T03:56:21;5.78;;;5.10;;
45252;SDS011;63171;50.520;30.486;2023-02-26T03:57:32;5.30;;;4.72;;
45252;SDS011;63171;50.520;30.486;2023-02-26T03:58:42;6.22;;;4.95;;
45252;SDS011;63171;50.520;30.486;2023-02-26T03:59:56;6.18;;;5.57;;
45252;SDS011;63171;50.520;30.486;2023-02-26T04:01:03;6.80;;;5.07;;
45252;SDS011;63171;50.520;30.486;2023-02-26T04:01:58;8.15;;;5.57;;
45252;SDS011;63171;50.520;30.486;2023-02-26T04:02:55;6.43;;;5.57;;
45252;SDS011;63171;50.520;30.486;2023-02-26T04:03:49;5.65;;;4.93;;
45252;SDS011;63171;50.520;30.486;2023-02-26T04:04:48;6.47;;;5.88;;
45252;SDS011;63171;50.520;30.486;2023-02-26T04:05:42;6.38;;;5.78;;
45252;SDS011;63171;50.520;30.486;2023-02-26T04:06:36;5.68;;;5.13;;
45252;SDS011;63171;50.520;30.486;2023-02-26T04:07:27;5.50;;;5.00;;
45252;SDS011;63171;50.520;30.486;2023-02-26T04:08:19;8.63;;;5.40;;
45252;SDS011;63171;50.520;30.486;2023-02-26T04:09:10;7.07;;;6.38;;
45252;SDS011;63171;50.520;30.486;2023-02-26T04:10:01;5.85;;;5.32;;
45252;SDS011;63171;50.520;30.486;2023-02-26T04:10:54;7.65;;;5.70;;
45252;SDS011;63171;50.520;30.486;2023-02-26T04:11:47;7.32;;;5.43;;
45252;SDS011;63171;50.520;30.486;2023-02-26T04:12:38;7.57;;;5.72;;
45252;SDS011;63171;50.520;30.486;2023-02-26T04:13:31;6.00;;;5.35;;
45252;SDS011;63171;50.520;30.486;2023-02-26T04:15:11;6.72;;;5.50;;
45252;SDS011;63171;50.520;30.486;2023-02-26T04:16:01;6.45;;;5.20;;
45252;SDS011;63171;50.520;30.486;2023-02-26T04:16:53;6.57;;;5.53;;
45252;SDS011;63171;50.520;30.486;2023-02-26T04:17:43;7.85;;;6.32;;
45252;SDS011;63171;50.520;30.486;2023-02-26T04:18:34;7.22;;;6.10;;
45252;SDS011;63171;50.520;30.486;2023-02-26T04:19:24;6.75;;;5.40;;
45252;SDS011;63171;50.520;30.486;2023-02-26T04:20:16;9.20;;;6.25;;
45252;SDS011;63171;50.520;30.486;2023-02-26T04:21:06;8.57;;;5.68;;
45252;SDS011;63171;50.520;30.486;2023-02-26T04:21:56;9.65;;;5.80;;
45252;SDS011;63171;50.520;30.486;2023-02-26T04:22:47;7.53;;;6.28;;
45252;SDS011;63171;50.520;30.486;2023-02-26T04:23:37;7.72;;;6.28;;
45252;SDS011;63171;50.520;30.486;2023-02-26T04:24:27;6.43;;;5.82;;
45252;SDS011;63171;50.520;30.486;2023-02-26T04:25:21;6.97;;;5.60;;
45252;SDS011;63171;50.520;30.486;2023-02-26T04:26:12;6.45;;;5.75;;
45252;SDS011;63171;50.520;30.486;2023-02-26T04:27:04;6.63;;;5.82;;
45252;SDS011;63171;50.520;30.486;2023-02-26T04:27:55;7.15;;;6.07;;
45252;SDS011;63171;50.520;30.486;2023-02-26T04:28:46;10.27;;;6.00;;
45252;SDS011;63171;50.520;30.486;2023-02-26T04:29:36;7.95;;;6.97;;
45252;SDS011;63171;50.520;30.486;2023-02-26T04:30:27;6.70;;;6.10;;
45252;SDS011;63171;50.520;30.486;2023-02-26T04:31:16;10.45;;;7.57;;
45252;SDS011;63171;50.520;30.486;2023-02-26T04:32:08;10.35;;;6.55;;
45252;SDS011;63171;50.520;30.486;2023-02-26T04:32:58;6.88;;;6.15;;
45252;SDS011;63171;50.520;30.486;2023-02-26T04:33:49;7.38;;;6.18;;
45252;SDS011;63171;50.520;30.486;2023-02-26T04:34:38;7.13;;;6.43;;
45252;SDS011;63171;50.520;30.486;2023-02-26T04:35:31;9.05;;;6.18;;
45252;SDS011;63171;50.520;30.486;2023-02-26T04:36:21;6.10;;;5.38;;
45252;SDS011;63171;50.520;30.486;2023-02-26T04:37:12;7.90;;;6.22;;
45252;SDS011;63171;50.520;30.486;2023-02-26T04:38:01;6.90;;;5.75;;
45252;SDS011;63171;50.520;30.486;2023-02-26T04:38:53;9.85;;;6.60;;
45252;SDS011;63171;50.520;30.486;2023-02-26T04:39:43;6.80;;;6.10;;
45252;SDS011;63171;50.520;30.486;2023-02-26T04:40:34;7.75;;;6.32;;
45252;SDS011;63171;50.520;30.486;2023-02-26T04:41:24;9.23;;;6.80;;
45252;SDS011;63171;50.520;30.486;2023-02-26T04:42:15;9.25;;;6.47;;
45252;SDS011;63171;50.520;30.486;2023-02-26T04:43:05;8.52;;;6.13;;
45252;SDS011;63171;50.520;30.486;2023-02-26T04:44:02;8.02;;;6.32;;
45252;SDS011;63171;50.520;30.486;2023-02-26T04:44:53;9.82;;;6.30;;
45252;SDS011;63171;50.520;30.486;2023-02-26T04:45:47;5.55;;;4.93;;
45252;SDS011;63171;50.520;30.486;2023-02-26T04:46:37;8.45;;;6.18;;
45252;SDS011;63171;50.520;30.486;2023-02-26T04:47:28;7.13;;;6.43;;
45252;SDS011;63171;50.520;30.486;2023-02-26T04:48:18;7.53;;;5.57;;
45252;SDS011;63171;50.520;30.486;2023-02-26T04:49:09;7.07;;;6.45;;
45252;SDS011;63171;50.520;30.486;2023-02-26T04:50:00;6.68;;;5.78;;
45252;SDS011;63171;50.520;30.486;2023-02-26T04:50:54;6.68;;;5.82;;
45252;SDS011;63171;50.520;30.486;2023-02-26T04:51:44;7.53;;;6.10;;
45252;SDS011;63171;50.520;30.486;2023-02-26T04:52:37;7.53;;;5.97;;
45252;SDS011;63171;50.520;30.486;2023-02-26T04:53:26;6.28;;;4.90;;
45252;SDS011;63171;50.520;30.486;2023-02-26T04:54:18;7.55;;;5.93;;
45252;SDS011;63171;50.520;30.486;2023-02-26T04:55:08;5.93;;;5.35;;
45252;SDS011;63171;50.520;30.486;2023-02-26T04:56:01;6.68;;;5.75;;
45252;SDS011;63171;50.520;30.486;2023-02-26T04:56:50;7.07;;;5.95;;
45252;SDS011;63171;50.520;30.486;2023-02-26T04:57:41;7.00;;;6.30;;
45252;SDS011;63171;50.520;30.486;2023-02-26T04:58:31;6.10;;;5.57;;
45252;SDS011;63171;50.520;30.486;2023-02-26T04:59:27;7.70;;;5.82;;
45252;SDS011;63171;50.520;30.486;2023-02-26T05:00:17;7.60;;;6.25;;
45252;SDS011;63171;50.520;30.486;2023-02-26T05:01:08;7.57;;;6.28;;
45252;SDS011;63171;50.520;30.486;2023-02-26T05:01:58;5.97;;;5.38;;
45252;SDS011;63171;50.520;30.486;2023-02-26T05:03:07;7.80;;;6.43;;
45252;SDS011;63171;50.520;30.486;2023-02-26T05:03:58;8.30;;;6.47;;
45252;SDS011;63171;50.520;30.486;2023-02-26T05:04:49;6.45;;;5.85;;
45252;SDS011;63171;50.520;30.486;2023-02-26T05:05:39;8.45;;;5.20;;
45252;SDS011;63171;50.520;30.486;2023-02-26T05:06:31;7.22;;;6.10;;
45252;SDS011;63171;50.520;30.486;2023-02-26T05:07:20;7.38;;;6.22;;
45252;SDS011;63171;50.520;30.486;2023-02-26T05:08:12;6.63;;;5.97;;
45252;SDS011;63171;50.520;30.486;2023-02-26T05:09:02;6.43;;;5.82;;
45252;SDS011;63171;50.520;30.486;2023-02-26T05:09:53;8.35;;;6.20;;
45252;SDS011;63171;50.520;30.486;2023-02-26T05:10:43;6.70;;;5.85;;
45252;SDS011;63171;50.520;30.486;2023-02-26T05:11:35;7.65;;;5.50;;
45252;SDS011;63171;50.520;30.486;2023-02-26T05:12:24;7.07;;;5.88;;
45252;SDS011;63171;50.520;30.486;2023-02-26T05:13:15;5.80;;;4.90;;
45252;SDS011;63171;50.520;30.486;2023-02-26T05:14:05;6.50;;;5.78;;
45252;SDS011;63171;50.520;30.486;2023-02-26T05:14:58;6.75;;;6.05;;
45252;SDS011;63171;50.520;30.486;2023-02-26T05:15:47;7.90;;;6.43;;
45252;SDS011;63171;50.520;30.486;2023-02-26T05:16:38;5.80;;;5.22;;
45252;SDS011;63171;50.520;30.486;2023-02-26T05:17:27;10.02;;;6.50;;
45252;SDS011;63171;50.520;30.486;2023-02-26T05:19:09;6.10;;;5.50;;
45252;SDS011;63171;50.520;30.486;2023-02-26T05:20:00;7.28;;;5.47;;
45252;SDS011;63171;50.520;30.486;2023-02-26T05:20:51;5.47;;;4.97;;
45252;SDS011;63171;50.520;30.486;2023-02-26T05:21:44;5.50;;;4.93;;
45252;SDS011;63171;50.520;30.486;2023-02-26T05:22:34;6.25;;;5.65;;
45252;SDS011;63171;50.520;30.486;2023-02-26T05:23:25;6.78;;;5.88;;
45252;SDS011;63171;50.520;30.486;2023-02-26T05:24:15;7.53;;;5.75;;
45252;SDS011;63171;50.520;30.486;2023-02-26T05:25:06;6.80;;;5.65;;
45252;SDS011;63171;50.520;30.486;2023-02-26T05:25:57;7.03;;;5.97;;
45252;SDS011;63171;50.520;30.486;2023-02-26T05:26:48;8.35;;;5.80;;
45252;SDS011;63171;50.520;30.486;2023-02-26T05:27:37;6.90;;;6.20;;
45252;SDS011;63171;50.520;30.486;2023-02-26T05:28:30;6.22;;;5.63;;
45252;SDS011;63171;50.520;30.486;2023-02-26T05:29:22;6.97;;;4.97;;
45252;SDS011;63171;50.520;30.486;2023-02-26T05:30:13;6.47;;;5.88;;
45252;SDS011;63171;50.520;30.486;2023-02-26T05:31:05;7.38;;;5.97;;
45252;SDS011;63171;50.520;30.486;2023-02-26T05:31:55;8.23;;;5.85;;